createdAt,value
2019-03-16T00:00:36.157Z,96195.23
2019-03-16T00:03:05.542Z,96205.14
2019-03-16T00:05:34.964Z,96181.56
2019-03-16T00:08:04.080Z,96202.98
2019-03-16T00:10:33.168Z,96203.52
2019-03-16T00:13:02.294Z,96198.16
2019-03-16T00:15:31.388Z,96200.86
2019-03-16T00:18:00.498Z,96213.17
2019-03-16T00:20:29.599Z,96197.36
2019-03-16T00:22:58.720Z,96212.63
2019-03-16T00:25:28.688Z,96212.63
2019-03-16T00:27:57.998Z,96219.03
2019-03-16T00:30:27.091Z,96223.05
2019-03-16T00:32:56.201Z,96211.53
2019-03-16T00:35:25.294Z,96221.97
2019-03-16T00:37:54.418Z,96216.36
2019-03-16T00:40:23.520Z,96221.72
2019-03-16T00:42:52.608Z,96226.53
2019-03-16T00:45:21.722Z,96228.93
2019-03-16T00:47:50.825Z,96222.26
2019-03-16T00:50:19.956Z,96218.75
2019-03-16T00:52:49.155Z,96220.92
2019-03-16T00:55:18.274Z,96234.56
2019-03-16T00:57:47.370Z,96222.25
2019-03-16T01:00:16.800Z,96229.47
2019-03-16T01:02:45.890Z,96230.01
2019-03-16T01:05:15.816Z,96236.16
2019-03-16T01:07:44.897Z,96225.18
2019-03-16T01:10:14.021Z,96230.53
2019-03-16T01:12:43.118Z,96216.34
2019-03-16T01:15:12.549Z,96230.81
2019-03-16T01:17:41.632Z,96234.52
2019-03-16T01:20:10.861Z,96230.51
2019-03-16T01:22:39.948Z,96226.50
2019-03-16T01:25:09.101Z,96232.94
2019-03-16T01:27:38.200Z,96234.26
2019-03-16T01:30:07.630Z,96229.98
2019-03-16T01:32:40.774Z,96240.69
2019-03-16T01:35:07.575Z,96237.48
2019-03-16T01:37:36.741Z,96223.58
2019-03-16T01:40:06.166Z,96231.84
2019-03-16T01:42:35.253Z,96223.58
2019-03-16T01:45:04.660Z,96226.48
2019-03-16T01:47:33.770Z,96228.09
2019-03-16T01:50:02.910Z,96237.73
2019-03-16T01:52:32.001Z,96240.12
2019-03-16T01:55:01.125Z,96246.54
2019-03-16T01:57:30.210Z,96245.84
2019-03-16T01:59:59.309Z,96243.00
2019-03-16T02:02:28.429Z,96231.95
2019-03-16T02:04:57.522Z,96237.83
2019-03-16T02:07:26.634Z,96237.69
2019-03-16T02:09:55.727Z,96237.33
2019-03-16T02:12:24.849Z,96247.42
2019-03-16T02:14:53.947Z,96235.37
2019-03-16T02:17:23.068Z,96230.23
2019-03-16T02:19:52.159Z,96233.22
2019-03-16T02:22:21.277Z,96244.53
2019-03-16T02:24:50.397Z,96239.38
2019-03-16T02:27:19.494Z,96222.04
2019-03-16T02:29:48.584Z,96234.14
2019-03-16T02:32:18.022Z,96247.32
2019-03-16T02:34:47.113Z,96240.89
2019-03-16T02:37:16.227Z,96234.95
2019-03-16T02:39:45.316Z,96233.02
2019-03-16T02:42:14.430Z,96238.64
2019-03-16T02:44:43.532Z,96239.84
2019-03-16T02:47:12.660Z,96246.77
2019-03-16T02:49:41.783Z,96238.01
2019-03-16T02:52:10.898Z,96233.06
2019-03-16T02:54:39.996Z,96232.87
2019-03-16T02:57:09.110Z,96226.02
2019-03-16T02:59:38.216Z,96228.45
2019-03-16T03:02:07.324Z,96226.86
2019-03-16T03:04:36.418Z,96227.14
2019-03-16T03:07:05.519Z,96218.05
2019-03-16T03:09:34.626Z,96223.96
2019-03-16T03:12:03.727Z,96220.48
2019-03-16T03:14:32.838Z,96214.60
2019-03-16T03:17:01.939Z,96208.72
2019-03-16T03:19:31.059Z,96213.28
2019-03-16T03:22:00.150Z,96215.67
2019-03-16T03:24:29.271Z,96216.49
2019-03-16T03:26:58.359Z,96208.16
2019-03-16T03:29:27.473Z,96208.70
2019-03-16T03:31:56.585Z,96204.69
2019-03-16T03:34:25.682Z,96203.63
2019-03-16T03:36:54.789Z,96219.67
2019-03-16T03:39:23.895Z,96205.22
2019-03-16T03:41:52.991Z,96205.22
2019-03-16T03:44:22.108Z,96205.49
2019-03-16T03:46:51.198Z,96202.02
2019-03-16T03:49:20.331Z,96214.58
2019-03-16T03:51:49.419Z,96211.91
2019-03-16T03:54:18.526Z,96200.16
2019-03-16T03:56:47.618Z,96205.47
2019-03-16T03:59:16.842Z,96201.47
2019-03-16T04:01:45.943Z,96200.66
2019-03-16T04:04:16.241Z,96210.83
2019-03-16T04:06:45.359Z,96202.27
2019-03-16T04:09:14.443Z,96202.80
2019-03-16T04:11:43.545Z,96193.42
2019-03-16T04:14:12.662Z,96209.47
2019-03-16T04:16:41.759Z,96202.25
2019-03-16T04:19:10.883Z,96198.52
2019-03-16T04:21:39.962Z,96241.83
2019-03-16T04:24:09.075Z,96206.26
2019-03-16T04:26:38.168Z,96216.40
2019-03-16T04:29:07.298Z,96220.16
2019-03-16T04:31:36.385Z,96218.55
2019-03-16T04:34:05.497Z,96228.72
2019-03-16T04:36:34.590Z,96221.48
2019-03-16T04:39:03.764Z,96216.16
2019-03-16T04:41:32.853Z,96224.40
2019-03-16T04:44:01.946Z,96234.56
2019-03-16T04:46:31.481Z,96222.81
2019-03-16T04:49:00.628Z,96215.55
2019-03-16T04:51:29.766Z,96211.81
2019-03-16T04:53:58.872Z,96206.16
2019-03-16T04:56:27.978Z,96209.92
2019-03-16T04:58:57.071Z,96225.68
2019-03-16T05:01:26.182Z,96225.16
2019-03-16T05:03:55.278Z,96219.02
2019-03-16T05:06:24.389Z,96217.94
2019-03-16T05:08:53.481Z,96205.91
2019-03-16T05:11:22.601Z,96210.45
2019-03-16T05:13:51.688Z,96213.13
2019-03-16T05:16:20.815Z,96211.78
2019-03-16T05:18:49.906Z,96195.77
2019-03-16T05:21:19.021Z,96199.00
2019-03-16T05:23:48.122Z,96211.31
2019-03-16T05:26:17.234Z,96212.37
2019-03-16T05:28:46.338Z,96217.74
2019-03-16T05:31:15.458Z,96217.72
2019-03-16T05:33:44.549Z,96224.93
2019-03-16T05:36:13.942Z,96234.26
2019-03-16T05:38:43.061Z,96237.52
2019-03-16T05:41:12.174Z,96247.34
2019-03-16T05:43:41.279Z,96242.00
2019-03-16T05:46:10.358Z,96246.54
2019-03-16T05:48:39.483Z,96246.02
2019-03-16T05:51:08.594Z,96245.79
2019-03-16T05:53:37.711Z,96245.23
2019-03-16T05:56:06.814Z,96232.98
2019-03-16T05:58:35.940Z,96237.80
2019-03-16T06:01:05.038Z,96235.93
2019-03-16T06:03:34.149Z,96243.14
2019-03-16T06:06:03.244Z,96241.83
2019-03-16T06:08:32.356Z,96241.07
2019-03-16T06:11:01.447Z,96247.45
2019-03-16T06:13:30.566Z,96251.20
2019-03-16T06:15:59.664Z,96264.86
2019-03-16T06:18:28.782Z,96253.36
2019-03-16T06:20:57.883Z,96251.19
2019-03-16T06:23:26.995Z,96254.41
2019-03-16T06:25:56.095Z,96257.09
2019-03-16T06:28:25.210Z,96271.52
2019-03-16T06:30:54.303Z,96262.44
2019-03-16T06:33:23.418Z,96264.05
2019-03-16T06:35:52.510Z,96249.37
2019-03-16T06:38:21.621Z,96261.68
2019-03-16T06:40:50.714Z,96275.33
2019-03-16T06:43:19.829Z,96272.13
2019-03-16T06:45:48.918Z,96259.53
2019-03-16T06:48:18.041Z,96269.98
2019-03-16T06:50:47.166Z,96270.23
2019-03-16T06:53:19.504Z,96278.81
2019-03-16T06:55:47.117Z,96289.78
2019-03-16T06:58:16.230Z,96271.31
2019-03-16T07:00:45.334Z,96278.53
2019-03-16T07:03:14.426Z,96278.25
2019-03-16T07:05:43.543Z,96283.38
2019-03-16T07:08:12.654Z,96293.02
2019-03-16T07:10:41.746Z,96287.66
2019-03-16T07:13:10.865Z,96291.95
2019-03-16T07:15:39.984Z,96303.46
2019-03-16T07:18:09.078Z,96298.92
2019-03-16T07:20:38.194Z,96302.65
2019-03-16T07:23:07.298Z,96303.20
2019-03-16T07:25:36.403Z,96300.81
2019-03-16T07:28:05.492Z,96295.97
2019-03-16T07:30:37.031Z,96296.52
2019-03-16T07:33:05.433Z,96307.22
2019-03-16T07:35:34.551Z,96297.02
2019-03-16T07:38:03.647Z,96305.34
2019-03-16T07:40:32.765Z,96312.34
2019-03-16T07:43:01.858Z,96312.59
2019-03-16T07:45:30.978Z,96302.97
2019-03-16T07:48:00.078Z,96309.14
2019-03-16T07:50:29.214Z,96304.54
2019-03-16T07:52:58.314Z,96316.05
2019-03-16T07:55:27.429Z,96312.31
2019-03-16T07:57:56.518Z,96320.88
2019-03-16T08:00:25.757Z,96312.02
2019-03-16T08:02:54.805Z,96303.20
2019-03-16T08:05:23.927Z,96311.51
2019-03-16T08:07:53.021Z,96308.28
2019-03-16T08:10:22.137Z,96315.24
2019-03-16T08:12:51.236Z,96311.00
2019-03-16T08:15:20.345Z,96312.31
2019-03-16T08:17:49.445Z,96304.59
2019-03-16T08:20:18.566Z,96308.34
2019-03-16T08:22:47.703Z,96310.50
2019-03-16T08:25:16.770Z,96302.47
2019-03-16T08:27:54.156Z,96294.16
2019-03-16T08:30:16.832Z,96314.46
2019-03-16T08:32:45.893Z,96298.61
2019-03-16T08:35:14.989Z,96302.10
2019-03-16T08:37:44.097Z,96307.17
2019-03-16T08:40:13.201Z,96294.33
2019-03-16T08:42:42.318Z,96296.75
2019-03-16T08:45:11.552Z,96298.84
2019-03-16T08:47:40.653Z,96296.45
2019-03-16T08:50:09.834Z,96302.35
2019-03-16T08:52:38.894Z,96303.38
2019-03-16T08:55:08.118Z,96322.88
2019-03-16T08:57:37.238Z,96290.23
2019-03-16T09:00:06.711Z,96303.08
2019-03-16T09:02:35.829Z,96308.45
2019-03-16T09:05:05.091Z,96305.53
2019-03-16T09:07:34.207Z,96281.41
2019-03-16T09:10:03.307Z,96316.23
2019-03-16T09:12:32.425Z,96322.16
2019-03-16T09:15:01.525Z,96304.78
2019-03-16T09:17:30.630Z,96296.11
2019-03-16T09:19:59.730Z,96317.81
2019-03-16T09:22:29.775Z,96306.53
2019-03-16T09:24:58.914Z,96319.63
2019-03-16T09:27:31.409Z,96306.86
2019-03-16T09:29:58.849Z,96308.70
2019-03-16T09:32:27.958Z,96308.78
2019-03-16T09:34:57.047Z,96310.38
2019-03-16T09:37:26.169Z,96304.50
2019-03-16T09:39:55.267Z,96293.75
2019-03-16T09:42:24.382Z,96311.08
2019-03-16T09:44:53.477Z,96316.33
2019-03-16T09:47:22.581Z,96313.34
2019-03-16T09:49:51.704Z,96306.88
2019-03-16T09:52:20.821Z,96305.88
2019-03-16T09:54:49.926Z,96299.70
2019-03-16T09:57:19.110Z,96290.94
2019-03-16T09:59:48.221Z,96308.56
2019-03-16T10:02:17.311Z,96291.23
2019-03-16T10:04:46.418Z,96293.22
2019-03-16T10:07:15.518Z,96280.87
2019-03-16T10:09:45.066Z,96302.80
2019-03-16T10:12:14.202Z,96287.25
2019-03-16T10:14:43.353Z,96289.44
2019-03-16T10:17:12.646Z,96270.16
2019-03-16T10:19:41.761Z,96267.23
2019-03-16T10:22:10.854Z,96268.56
2019-03-16T10:24:39.974Z,96260.02
2019-03-16T10:27:09.069Z,96264.53
2019-03-16T10:29:38.206Z,96259.77
2019-03-16T10:32:07.282Z,96259.81
2019-03-16T10:34:36.716Z,96263.89
2019-03-16T10:37:05.904Z,96259.55
2019-03-16T10:39:35.015Z,96256.92
2019-03-16T10:42:04.205Z,96252.20
2019-03-16T10:44:33.318Z,96257.06
2019-03-16T10:47:02.406Z,96235.92
2019-03-16T10:49:31.524Z,96251.20
2019-03-16T10:52:00.645Z,96249.06
2019-03-16T10:54:30.100Z,96232.45
2019-03-16T10:56:59.201Z,96243.39
2019-03-16T10:59:28.301Z,96248.80
2019-03-16T11:01:57.388Z,96242.13
2019-03-16T11:04:26.498Z,96231.67
2019-03-16T11:06:55.588Z,96233.02
2019-03-16T11:09:26.777Z,96229.77
2019-03-16T11:11:55.510Z,96232.72
2019-03-16T11:14:24.619Z,96231.08
2019-03-16T11:16:53.713Z,96226.55
2019-03-16T11:19:22.848Z,96230.61
2019-03-16T11:21:51.927Z,96228.20
2019-03-16T11:24:21.047Z,96234.37
2019-03-16T11:26:50.140Z,96240.25
2019-03-16T11:29:19.301Z,96235.97
2019-03-16T11:31:48.459Z,96241.86
2019-03-16T11:34:17.555Z,96237.80
2019-03-16T11:36:46.680Z,96222.84
2019-03-16T11:39:15.769Z,96250.17
2019-03-16T11:41:44.876Z,96244.81
2019-03-16T11:44:13.979Z,96248.02
2019-03-16T11:46:43.088Z,96219.87
2019-03-16T11:49:12.186Z,96235.65
2019-03-16T11:51:41.328Z,96250.06
2019-03-16T11:54:10.413Z,96249.53
2019-03-16T11:56:39.530Z,96238.84
2019-03-16T11:59:20.820Z,96240.98
2019-03-16T12:01:39.445Z,96232.67
2019-03-16T12:04:08.533Z,96237.98
2019-03-16T12:06:37.656Z,96232.36
2019-03-16T12:09:07.913Z,96222.75
2019-03-16T12:11:37.030Z,96218.45
2019-03-16T12:14:06.124Z,96232.41
2019-03-16T12:16:35.245Z,96229.97
2019-03-16T12:19:04.340Z,96236.67
2019-03-16T12:21:33.461Z,96238.84
2019-03-16T12:24:02.558Z,96241.52
2019-03-16T12:26:31.682Z,96226.48
2019-03-16T12:29:00.777Z,96239.64
2019-03-16T12:31:29.898Z,96226.23
2019-03-16T12:33:59.033Z,96221.20
2019-03-16T12:36:28.106Z,96217.98
2019-03-16T12:38:57.197Z,96203.26
2019-03-16T12:41:26.303Z,96202.98
2019-03-16T12:43:55.390Z,96199.77
2019-03-16T12:46:24.541Z,96197.59
2019-03-16T12:48:53.643Z,96185.30
2019-03-16T12:51:22.784Z,96189.86
2019-03-16T12:53:51.884Z,96206.94
2019-03-16T12:56:20.981Z,96221.06
2019-03-16T12:58:50.106Z,96219.98
2019-03-16T13:01:19.206Z,96201.46
2019-03-16T13:03:50.330Z,96225.85
2019-03-16T13:06:19.319Z,96201.01
2019-03-16T13:08:48.433Z,96183.09
2019-03-16T13:11:17.526Z,96203.71
2019-03-16T13:13:46.644Z,96175.89
2019-03-16T13:16:15.736Z,96169.77
2019-03-16T13:18:44.853Z,96170.05
2019-03-16T13:21:13.947Z,96160.95
2019-03-16T13:23:43.071Z,96166.56
2019-03-16T13:26:12.172Z,96166.54
2019-03-16T13:28:41.303Z,96164.39
2019-03-16T13:31:10.396Z,96167.31
2019-03-16T13:33:39.509Z,96159.56
2019-03-16T13:36:08.601Z,96165.72
2019-03-16T13:38:37.716Z,96164.09
2019-03-16T13:41:06.805Z,96157.39
2019-03-16T13:43:35.917Z,96157.90
2019-03-16T13:46:05.010Z,96179.00
2019-03-16T13:48:34.135Z,96161.59
2019-03-16T13:51:03.253Z,96156.78
2019-03-16T13:53:32.787Z,96160.19
2019-03-16T13:56:02.233Z,96152.23
2019-03-16T13:58:31.340Z,96137.02
2019-03-16T14:01:00.457Z,96128.73
2019-03-16T14:03:29.563Z,96126.06
2019-03-16T14:05:59.006Z,96128.47
2019-03-16T14:08:28.108Z,96128.23
2019-03-16T14:10:57.218Z,96120.73
2019-03-16T14:13:26.593Z,96126.86
2019-03-16T14:15:55.710Z,96129.27
2019-03-16T14:18:24.804Z,96122.31
2019-03-16T14:20:53.925Z,96114.06
2019-03-16T14:23:23.004Z,96101.23
2019-03-16T14:25:52.276Z,96117.02
2019-03-16T14:28:21.648Z,96108.45
2019-03-16T14:30:50.766Z,96119.95
2019-03-16T14:33:19.869Z,96110.30
2019-03-16T14:35:48.984Z,96107.38
2019-03-16T14:38:18.086Z,96098.82
2019-03-16T14:40:47.205Z,96109.02
2019-03-16T14:43:16.366Z,96107.41
2019-03-16T14:45:48.844Z,96099.13
2019-03-16T14:48:17.334Z,96104.70
2019-03-16T14:50:46.473Z,96092.40
2019-03-16T14:53:15.584Z,96103.61
2019-03-16T14:55:44.680Z,96088.36
2019-03-16T14:58:13.797Z,96079.29
2019-03-16T15:00:42.890Z,96092.92
2019-03-16T15:03:11.985Z,96090.74
2019-03-16T15:05:41.096Z,96076.86
2019-03-16T15:08:10.263Z,96087.75
2019-03-16T15:10:39.369Z,96092.07
2019-03-16T15:13:08.465Z,96078.98
2019-03-16T15:15:37.592Z,96076.86
2019-03-16T15:18:06.680Z,96068.83
2019-03-16T15:20:35.892Z,96079.00
2019-03-16T15:23:04.986Z,96072.86
2019-03-16T15:25:34.188Z,96071.78
2019-03-16T15:28:03.283Z,96069.91
2019-03-16T15:30:32.392Z,96063.75
2019-03-16T15:33:01.479Z,96051.17
2019-03-16T15:35:30.573Z,96062.95
2019-03-16T15:37:59.698Z,96066.73
2019-03-16T15:40:28.790Z,96065.09
2019-03-16T15:42:57.900Z,96066.96
2019-03-16T15:45:27.044Z,96072.03
2019-03-16T15:47:56.161Z,96059.48
2019-03-16T15:50:25.576Z,96062.44
2019-03-16T15:52:56.648Z,96052.53
2019-03-16T15:55:26.502Z,96050.38
2019-03-16T15:58:07.434Z,96053.33
2019-03-16T16:00:28.205Z,96049.30
2019-03-16T16:02:57.597Z,96048.25
2019-03-16T16:05:26.838Z,96048.53
2019-03-16T16:07:56.395Z,96046.91
2019-03-16T16:10:25.681Z,96050.40
2019-03-16T16:12:54.951Z,96045.56
2019-03-16T16:15:24.170Z,96039.95
2019-03-16T16:17:54.055Z,96035.69
2019-03-16T16:20:23.321Z,96066.97
2019-03-16T16:22:53.367Z,96046.63
2019-03-16T16:25:22.874Z,96024.17
2019-03-16T16:27:53.189Z,96023.92
2019-03-16T16:30:22.426Z,96027.95
2019-03-16T16:32:51.565Z,96020.72
2019-03-16T16:35:20.855Z,96025.51
2019-03-16T16:37:49.995Z,96020.98
2019-03-16T16:40:19.252Z,96030.59
2019-03-16T16:42:48.985Z,96030.59
2019-03-16T16:45:18.256Z,96016.95
2019-03-16T16:47:47.402Z,96023.11
2019-03-16T16:50:16.622Z,96007.06
2019-03-16T16:52:46.049Z,96018.30
2019-03-16T16:55:15.381Z,96008.67
2019-03-16T16:57:44.603Z,96007.06
2019-03-16T17:00:15.729Z,96007.84
2019-03-16T17:02:44.986Z,96005.99
2019-03-16T17:05:14.265Z,96001.16
2019-03-16T17:07:43.588Z,96003.83
2019-03-16T17:10:13.760Z,96003.83
2019-03-16T17:12:43.386Z,96007.55
2019-03-16T17:15:13.383Z,95997.92
2019-03-16T17:17:42.490Z,95994.72
2019-03-16T17:20:12.120Z,95997.38
2019-03-16T17:22:41.313Z,95989.08
2019-03-16T17:25:10.657Z,95994.98
2019-03-16T17:27:39.752Z,95993.63
2019-03-16T17:30:13.238Z,96002.17
2019-03-16T17:32:42.536Z,95989.08
2019-03-16T17:35:12.111Z,95984.28
2019-03-16T17:37:41.154Z,95981.60
2019-03-16T17:40:10.576Z,95989.08
2019-03-16T17:42:39.666Z,95979.19
2019-03-16T17:45:09.204Z,95967.71
2019-03-16T17:47:38.290Z,95963.95
2019-03-16T17:50:07.946Z,95971.45
2019-03-16T17:52:37.058Z,95977.05
2019-03-16T17:55:06.693Z,95981.31
2019-03-16T17:57:35.783Z,95960.50
2019-03-16T18:00:05.408Z,95965.01
2019-03-16T18:02:34.517Z,95959.41
2019-03-16T18:05:03.610Z,95966.89
2019-03-16T18:07:32.733Z,95960.20
2019-03-16T18:10:02.147Z,95957.00
2019-03-16T18:12:31.263Z,95946.02
2019-03-16T18:15:00.487Z,95941.49
2019-03-16T18:17:29.540Z,95933.72
2019-03-16T18:19:58.632Z,95949.23
2019-03-16T18:22:27.749Z,95945.48
2019-03-16T18:24:56.837Z,95947.05
2019-03-16T18:27:25.949Z,95949.73
2019-03-16T18:29:55.043Z,95944.12
2019-03-16T18:32:24.153Z,95955.88
2019-03-16T18:34:53.243Z,95946.25
2019-03-16T18:37:22.353Z,95947.84
2019-03-16T18:39:51.441Z,95936.91
2019-03-16T18:42:20.561Z,95932.13
2019-03-16T18:44:49.656Z,95934.00
2019-03-16T18:47:18.785Z,95926.20
2019-03-16T18:49:47.876Z,95926.72
2019-03-16T18:52:17.028Z,95927.24
2019-03-16T18:54:46.120Z,95910.71
2019-03-16T18:57:15.219Z,95926.17
2019-03-16T18:59:44.326Z,95914.13
2019-03-16T19:02:20.608Z,95911.99
2019-03-16T19:04:44.261Z,95916.56
2019-03-16T19:07:13.346Z,95917.63
2019-03-16T19:09:42.453Z,95909.36
2019-03-16T19:12:11.538Z,95916.56
2019-03-16T19:14:40.679Z,95916.30
2019-03-16T19:17:09.815Z,95920.31
2019-03-16T19:19:38.924Z,95910.44
2019-03-16T19:22:08.011Z,95895.20
2019-03-16T19:24:37.164Z,95894.42
2019-03-16T19:27:06.230Z,95900.80
2019-03-16T19:29:35.346Z,95894.39
2019-03-16T19:32:04.437Z,95884.23
2019-03-16T19:34:34.687Z,95892.27
2019-03-16T19:37:05.245Z,95898.13
2019-03-16T19:39:35.846Z,95886.11
2019-03-16T19:42:06.041Z,95889.84
2019-03-16T19:44:36.021Z,95889.26
2019-03-16T19:47:05.681Z,95881.77
2019-03-16T19:49:35.742Z,95879.91
2019-03-16T19:52:05.206Z,95874.59
2019-03-16T19:54:34.898Z,95852.73
2019-03-16T19:57:15.293Z,95865.81
2019-03-16T19:59:36.665Z,95875.41
2019-03-16T20:02:06.772Z,95863.64
2019-03-16T20:04:36.547Z,95858.06
2019-03-16T20:07:18.511Z,95854.33
2019-03-16T20:09:37.170Z,95847.37
2019-03-16T20:12:07.458Z,95860.46
2019-03-16T20:14:36.548Z,95857.78
2019-03-16T20:17:07.572Z,95855.63
2019-03-16T20:19:36.698Z,95863.11
2019-03-16T20:22:05.789Z,95856.66
2019-03-16T20:24:34.894Z,95852.14
2019-03-16T20:27:04.014Z,95849.73
2019-03-16T20:29:33.570Z,95841.18
2019-03-16T20:32:03.539Z,95840.90
2019-03-16T20:34:33.633Z,95842.52
2019-03-16T20:37:03.483Z,95842.48
2019-03-16T20:39:33.473Z,95830.46
2019-03-16T20:42:03.579Z,95824.87
2019-03-16T20:44:33.125Z,95828.55
2019-03-16T20:47:03.020Z,95826.72
2019-03-16T20:49:32.630Z,95825.88
2019-03-16T20:52:02.298Z,95826.95
2019-03-16T20:54:31.870Z,95831.27
2019-03-16T20:57:01.864Z,95824.79
2019-03-16T20:59:31.787Z,95817.37
2019-03-16T21:02:01.980Z,95813.91
2019-03-16T21:04:31.953Z,95806.97
2019-03-16T21:07:01.467Z,95799.80
2019-03-16T21:09:31.395Z,95799.02
2019-03-16T21:12:00.901Z,95802.77
2019-03-16T21:14:30.016Z,95791.78
2019-03-16T21:17:00.221Z,95793.63
2019-03-16T21:19:30.080Z,95779.78
2019-03-16T21:22:02.570Z,95781.91
2019-03-16T21:24:32.436Z,95768.59
2019-03-16T21:27:01.949Z,95769.66
2019-03-16T21:29:31.476Z,95771.25
2019-03-16T21:32:01.656Z,95758.19
2019-03-16T21:34:33.311Z,95761.66
2019-03-16T21:37:01.597Z,95756.58
2019-03-16T21:39:31.797Z,95746.71
2019-03-16T21:42:01.718Z,95728.57
2019-03-16T21:44:32.032Z,95739.80
2019-03-16T21:47:01.753Z,95735.53
2019-03-16T21:49:31.134Z,95729.38
2019-03-16T21:52:02.858Z,95744.05
2019-03-16T21:54:31.858Z,95740.33
2019-03-16T21:57:02.054Z,95733.94
2019-03-16T21:59:32.275Z,95729.92
2019-03-16T22:02:03.725Z,95727.51
2019-03-16T22:04:33.569Z,95723.78
2019-03-16T22:07:04.607Z,95708.81
2019-03-16T22:09:34.685Z,95698.14
2019-03-16T22:12:03.989Z,95693.36
2019-03-16T22:14:33.976Z,95712.30
2019-03-16T22:17:03.209Z,95702.70
2019-03-16T22:19:33.115Z,95712.55
2019-03-16T22:22:02.470Z,95689.08
2019-03-16T22:24:31.578Z,95702.97
2019-03-16T22:27:01.188Z,95702.14
2019-03-16T22:29:30.285Z,95700.29
2019-03-16T22:31:59.867Z,95695.21
2019-03-16T22:34:29.506Z,95692.02
2019-03-16T22:36:58.613Z,95699.22
2019-03-16T22:39:28.715Z,95686.41
2019-03-16T22:41:57.827Z,95682.92
2019-03-16T22:44:26.926Z,95681.59
2019-03-16T22:46:56.857Z,95666.11
2019-03-16T22:49:27.044Z,95670.91
2019-03-16T22:51:59.739Z,95677.31
2019-03-16T22:54:30.220Z,95670.34
2019-03-16T22:56:59.586Z,95682.38
2019-03-16T22:59:30.336Z,95669.28
2019-03-16T23:02:00.893Z,95679.47
2019-03-16T23:04:30.325Z,95664.75
2019-03-16T23:07:00.106Z,95663.42
2019-03-16T23:09:30.232Z,95651.65
2019-03-16T23:12:02.528Z,95656.23
2019-03-16T23:14:31.629Z,95648.48
2019-03-16T23:17:02.227Z,95642.87
2019-03-16T23:19:31.899Z,95648.98
2019-03-16T23:22:01.584Z,95642.32
2019-03-16T23:24:31.323Z,95640.44
2019-03-16T23:27:00.735Z,95644.46
2019-03-16T23:29:30.168Z,95647.37
2019-03-16T23:32:00.302Z,95644.17
2019-03-16T23:34:29.595Z,95638.55
2019-03-16T23:36:59.624Z,95641.23
2019-03-16T23:39:29.330Z,95642.27
2019-03-16T23:41:59.310Z,95636.40
2019-03-16T23:44:28.400Z,95631.89
2019-03-16T23:46:57.520Z,95619.88
2019-03-16T23:49:26.637Z,95625.48
2019-03-16T23:51:55.757Z,95621.81
2019-03-16T23:54:24.871Z,95621.23
2019-03-16T23:56:54.131Z,95616.70
2019-03-16T23:59:23.226Z,95614.27
